Time;durP1;ratioP1;P1;durP2;ratioP2;P2;SDS_P1;SDS_P2;PMS_P1;PMS_P2;Temp;Humidity;BMP_temperature;BMP_pressure;BME280_temperature;BME280_humidity;BME280_pressure;Samples;Min_cycle;Max_cycle;Signal;HPM_P1;HPM_P2
2022/05/29 00:00:17;;;;;;;8.75;4.40;;;10.00;99.90;;;;;;5026570;28;20023;-67
2022/05/29 00:02:43;;;;;;;9.45;3.92;;;9.90;99.90;;;;;;5027200;28;20043;-68
2022/05/29 00:05:11;;;;;;;12.63;6.22;;;10.00;99.90;;;;;;5027484;28;20037;-65
2022/05/29 00:07:37;;;;;;;16.00;6.03;;;10.10;99.90;;;;;;5028037;28;20025;-67
2022/05/29 00:10:06;;;;;;;13.07;6.63;;;10.10;99.90;;;;;;5025568;28;20116;-66
2022/05/29 00:12:31;;;;;;;12.02;5.75;;;10.00;99.90;;;;;;5024529;28;20669;-67
2022/05/29 00:14:57;;;;;;;11.38;5.07;;;9.90;99.90;;;;;;5025944;28;20022;-66
2022/05/29 00:17:23;;;;;;;8.25;4.55;;;9.80;99.90;;;;;;5029456;28;20041;-67
2022/05/29 00:19:49;;;;;;;12.60;5.15;;;9.80;99.90;;;;;;5026770;28;20494;-67
2022/05/29 00:22:17;;;;;;;9.43;4.93;;;9.70;99.90;;;;;;5027867;28;20129;-66
2022/05/29 00:24:45;;;;;;;9.20;5.13;;;9.80;99.90;;;;;;5029388;28;20489;-67
2022/05/29 00:27:11;;;;;;;6.75;4.63;;;9.90;99.90;;;;;;5025584;28;20049;-63
2022/05/29 00:29:38;;;;;;;10.25;4.75;;;10.00;99.90;;;;;;5029046;28;20049;-67
2022/05/29 00:32:05;;;;;;;9.52;4.90;;;10.10;99.90;;;;;;5025743;28;20037;-67
2022/05/29 00:34:32;;;;;;;9.60;5.35;;;10.20;99.90;;;;;;5027277;28;20684;-67
2022/05/29 00:36:58;;;;;;;6.72;4.60;;;10.20;99.90;;;;;;5026585;28;20104;-67
2022/05/29 00:39:25;;;;;;;11.85;4.47;;;10.20;99.90;;;;;;5021822;28;20559;-67
2022/05/29 00:41:52;;;;;;;9.15;4.85;;;10.20;99.90;;;;;;5006790;28;20030;-66
2022/05/29 00:44:21;;;;;;;7.55;4.50;;;10.20;99.90;;;;;;5025160;28;20021;-65
2022/05/29 00:46:51;;;;;;;8.90;4.70;;;10.20;99.90;;;;;;5028198;28;20417;-65
2022/05/29 00:49:20;;;;;;;10.30;4.90;;;10.10;99.90;;;;;;5026119;28;20462;-67
2022/05/29 00:51:53;;;;;;;7.97;4.13;;;10.00;99.90;;;;;;5027042;28;20366;-66
2022/05/29 00:54:19;;;;;;;9.20;4.63;;;9.90;99.90;;;;;;5027459;28;20040;-68
2022/05/29 00:56:46;;;;;;;8.57;4.70;;;9.90;99.90;;;;;;5027785;28;20033;-66
2022/05/29 00:59:27;;;;;;;6.60;4.43;;;9.90;99.90;;;;;;5026028;28;20037;-64
2022/05/29 01:01:56;;;;;;;8.40;4.75;;;9.90;99.90;;;;;;5022031;28;20033;-67
2022/05/29 01:04:22;;;;;;;7.85;4.60;;;9.80;99.90;;;;;;5028240;28;20048;-66
2022/05/29 01:06:48;;;;;;;8.85;4.25;;;9.90;99.90;;;;;;5027138;28;20034;-67
2022/05/29 01:09:16;;;;;;;9.13;4.90;;;10.00;99.90;;;;;;5028363;28;20041;-63
2022/05/29 01:12:02;;;;;;;8.77;4.55;;;10.00;99.90;;;;;;5028652;28;20033;-66
2022/05/29 01:14:44;;;;;;;9.43;4.57;;;10.00;99.90;;;;;;5025817;28;20489;-67
2022/05/29 01:17:43;;;;;;;12.30;5.15;;;9.90;99.90;;;;;;5026560;28;20079;-67
2022/05/29 01:20:42;;;;;;;8.10;5.38;;;9.90;99.90;;;;;;5023290;28;20057;-67
2022/05/29 01:23:14;;;;;;;8.70;5.28;;;9.80;99.90;;;;;;4991778;28;20044;-67
2022/05/29 01:25:48;;;;;;;11.55;5.13;;;9.80;99.90;;;;;;5028430;28;20030;-65
2022/05/29 01:28:31;;;;;;;12.55;5.10;;;9.70;99.90;;;;;;5027074;28;20426;-64
2022/05/29 01:31:13;;;;;;;10.38;5.10;;;9.60;99.90;;;;;;5026182;28;20037;-66
2022/05/29 01:34:13;;;;;;;11.57;5.25;;;9.70;99.90;;;;;;5027208;28;20033;-65
2022/05/29 01:37:00;;;;;;;8.30;5.18;;;9.70;99.90;;;;;;5026384;28;20045;-67
2022/05/29 01:39:36;;;;;;;9.05;5.07;;;9.60;99.90;;;;;;5022819;28;20790;-68
2022/05/29 01:42:15;;;;;;;12.50;6.07;;;9.60;99.90;;;;;;5025984;28;20029;-66
2022/05/29 01:44:53;;;;;;;6.78;5.30;;;9.60;99.90;;;;;;5024525;28;20033;-66
2022/05/29 01:47:33;;;;;;;9.95;5.53;;;9.60;99.90;;;;;;5022933;28;20097;-64
2022/05/29 01:50:08;;;;;;;9.85;5.05;;;9.60;99.90;;;;;;5025378;28;20049;-68
2022/05/29 01:52:49;;;;;;;9.32;4.95;;;9.70;99.90;;;;;;5026259;28;20040;-68
2022/05/29 01:55:14;;;;;;;;;;;9.60;99.90;;;;;;5025494;28;20034;-67
2022/05/29 01:57:44;;;;;;;8.43;5.13;;;9.60;99.90;;;;;;5024860;28;20592;-66
2022/05/29 02:00:17;;;;;;;9.35;4.88;;;9.50;99.90;;;;;;5025808;28;20034;-66
2022/05/29 02:03:04;;;;;;;11.27;5.55;;;9.50;99.90;;;;;;5022341;28;20041;-66
2022/05/29 02:05:50;;;;;;;7.05;4.90;;;9.60;99.90;;;;;;5025694;28;20052;-68
2022/05/29 02:08:24;;;;;;;8.00;5.38;;;9.60;99.90;;;;;;5028750;28;20064;-65
2022/05/29 02:11:04;;;;;;;8.60;5.20;;;9.60;99.90;;;;;;5028115;28;20124;-66
2022/05/29 02:13:32;;;;;;;9.70;5.00;;;9.70;99.90;;;;;;5028374;28;20056;-67
2022/05/29 02:16:11;;;;;;;9.32;5.22;;;9.70;99.90;;;;;;5029087;28;20025;-66
2022/05/29 02:19:19;;;;;;;11.50;5.55;;;9.70;99.90;;;;;;5028840;28;20596;-67
2022/05/29 02:21:48;;;;;;;13.75;5.63;;;9.70;99.90;;;;;;5030071;28;20048;-67
2022/05/29 02:24:19;;;;;;;11.27;5.28;;;9.70;99.90;;;;;;5031935;28;20087;-67
2022/05/29 02:27:02;;;;;;;13.02;5.00;;;9.70;99.90;;;;;;5029722;28;20104;-67
2022/05/29 02:29:28;;;;;;;9.30;5.50;;;9.60;99.90;;;;;;5026253;28;20535;-66
2022/05/29 02:32:03;;;;;;;10.77;4.85;;;9.60;99.90;;;;;;5027353;28;20482;-67
2022/05/29 02:34:45;;;;;;;9.30;5.25;;;9.60;99.90;;;;;;5026749;28;20367;-66
2022/05/29 02:37:22;;;;;;;9.00;5.55;;;9.70;99.90;;;;;;5023056;28;20030;-63
2022/05/29 02:40:09;;;;;;;10.02;5.78;;;9.70;99.90;;;;;;5029162;28;20172;-67
2022/05/29 02:42:51;;;;;;;13.77;5.65;;;9.70;99.90;;;;;;5030685;28;20037;-68
2022/05/29 02:45:56;;;;;;;9.75;4.50;;;9.70;99.90;;;;;;5029590;28;20498;-66
2022/05/29 02:48:30;;;;;;;8.23;5.05;;;9.60;99.90;;;;;;4983628;28;20045;-63
2022/05/29 02:51:06;;;;;;;8.40;5.65;;;9.60;99.90;;;;;;5028233;28;20042;-66
2022/05/29 02:53:33;;;;;;;10.13;5.75;;;9.70;99.90;;;;;;5029014;28;20474;-65
2022/05/29 02:56:04;;;;;;;10.85;5.22;;;9.70;99.90;;;;;;5029988;28;20082;-67
2022/05/29 02:58:32;;;;;;;8.50;5.55;;;9.70;99.90;;;;;;5026940;28;20466;-67
2022/05/29 03:01:22;;;;;;;18.55;5.82;;;9.70;99.90;;;;;;5028888;28;20452;-65
2022/05/29 03:03:54;;;;;;;9.20;5.80;;;9.60;99.90;;;;;;5025974;28;20053;-66
2022/05/29 03:06:38;;;;;;;11.73;5.93;;;9.50;99.90;;;;;;5027424;28;20896;-65
2022/05/29 03:09:31;;;;;;;9.40;5.75;;;9.50;99.90;;;;;;5029785;28;20037;-67
2022/05/29 03:11:56;;;;;;;14.65;5.43;;;9.60;99.90;;;;;;5021538;28;20037;-67
2022/05/29 03:14:41;;;;;;;7.72;4.95;;;9.50;99.90;;;;;;5029735;28;20032;-64
2022/05/29 03:17:29;;;;;;;10.13;4.97;;;9.50;99.90;;;;;;5029212;28;20075;-67
2022/05/29 03:20:02;;;;;;;7.88;5.00;;;9.50;99.90;;;;;;5029642;28;20494;-66
2022/05/29 03:22:49;;;;;;;10.00;5.07;;;9.50;99.90;;;;;;5030174;28;20112;-67
2022/05/29 03:25:25;;;;;;;10.95;4.60;;;9.50;99.90;;;;;;5031815;28;20072;-67
2022/05/29 03:27:55;;;;;;;9.32;4.15;;;9.50;99.90;;;;;;5027305;28;20029;-67
2022/05/29 03:30:27;;;;;;;8.70;4.45;;;9.40;99.90;;;;;;5030228;28;20041;-64
2022/05/29 03:32:56;;;;;;;9.45;4.63;;;9.30;99.90;;;;;;5028122;28;20049;-67
2022/05/29 03:35:27;;;;;;;6.88;4.47;;;9.30;99.90;;;;;;5024651;28;20030;-63
2022/05/29 03:37:54;;;;;;;8.55;4.45;;;9.30;99.90;;;;;;5027791;28;20045;-67
2022/05/29 03:40:20;;;;;;;7.50;3.80;;;9.30;99.90;;;;;;5029464;28;20183;-68
2022/05/29 03:42:47;;;;;;;6.75;4.25;;;9.30;99.90;;;;;;5029586;28;20091;-67
2022/05/29 03:45:13;;;;;;;8.40;3.58;;;9.30;99.90;;;;;;5027624;28;20462;-67
2022/05/29 03:47:39;;;;;;;8.68;3.60;;;9.30;99.90;;;;;;5023954;28;20036;-67
2022/05/29 03:50:07;;;;;;;8.30;3.83;;;9.40;99.90;;;;;;5026089;28;20502;-65
2022/05/29 03:52:34;;;;;;;7.18;3.90;;;9.40;99.90;;;;;;5026615;28;20021;-67
2022/05/29 03:55:00;;;;;;;6.93;4.00;;;9.40;99.90;;;;;;5026779;28;20025;-67
2022/05/29 03:57:27;;;;;;;7.10;4.28;;;9.40;99.90;;;;;;5025054;28;20435;-65
2022/05/29 03:59:53;;;;;;;6.80;3.60;;;9.30;99.90;;;;;;5026465;28;20064;-67
2022/05/29 04:02:19;;;;;;;7.38;3.67;;;9.30;99.90;;;;;;5026959;28;20025;-67
2022/05/29 04:04:45;;;;;;;7.72;3.60;;;9.30;99.90;;;;;;5025820;28;20033;-66
2022/05/29 04:07:11;;;;;;;10.05;3.63;;;9.30;99.90;;;;;;5027740;28;20629;-66
2022/05/29 04:12:21;;;;;;;8.73;3.90;;;9.40;99.90;;;;;;5027124;28;20037;-65
2022/05/29 04:14:47;;;;;;;9.20;3.63;;;9.30;99.90;;;;;;5026472;28;20347;-66
2022/05/29 04:17:17;;;;;;;9.75;3.92;;;9.30;99.90;;;;;;5027162;28;20470;-67
2022/05/29 04:19:46;;;;;;;7.40;3.30;;;9.30;99.90;;;;;;5025475;28;20036;-67
2022/05/29 04:22:17;;;;;;;7.65;3.78;;;9.30;99.90;;;;;;5025733;28;20204;-66
2022/05/29 04:24:43;;;;;;;7.97;3.45;;;9.30;99.90;;;;;;5025291;28;20486;-66
2022/05/29 04:27:10;;;;;;;6.53;3.40;;;9.40;99.90;;;;;;5026652;28;20028;-65
2022/05/29 04:29:36;;;;;;;7.25;3.97;;;9.30;99.90;;;;;;5027327;28;20045;-65
2022/05/29 04:34:46;;;;;;;11.10;4.88;;;9.40;99.90;;;;;;5025620;28;20052;-66
2022/05/29 04:37:12;;;;;;;11.25;4.20;;;9.30;99.90;;;;;;5025991;28;20421;-67
2022/05/29 04:39:37;;;;;;;9.48;4.75;;;9.50;99.90;;;;;;5027114;28;20029;-66
2022/05/29 04:42:04;;;;;;;7.70;3.95;;;9.50;99.90;;;;;;5025926;28;20489;-67
2022/05/29 04:44:31;;;;;;;10.57;4.38;;;9.50;99.90;;;;;;5027478;28;20025;-66
2022/05/29 04:47:01;;;;;;;7.95;4.28;;;9.40;99.90;;;;;;5028119;28;20390;-67
2022/05/29 04:49:27;;;;;;;10.68;4.68;;;9.20;99.90;;;;;;5027586;28;20390;-64
2022/05/29 04:51:53;;;;;;;7.45;4.40;;;9.10;99.90;;;;;;5025997;28;20045;-67
2022/05/29 04:54:19;;;;;;;7.07;3.60;;;9.20;99.90;;;;;;5027831;28;20440;-66
2022/05/29 04:56:49;;;;;;;7.82;3.65;;;9.20;99.90;;;;;;5023045;28;20041;-67
2022/05/29 04:59:15;;;;;;;9.07;3.33;;;9.20;99.90;;;;;;5024636;28;20041;-64
2022/05/29 05:01:40;;;;;;;11.57;4.85;;;9.30;99.90;;;;;;5025199;28;20111;-67
2022/05/29 05:04:06;;;;;;;6.30;3.33;;;9.50;99.90;;;;;;5025016;28;20021;-67
2022/05/29 05:06:32;;;;;;;5.05;2.97;;;9.80;99.90;;;;;;5026083;28;20536;-66
2022/05/29 05:08:58;;;;;;;5.72;3.42;;;10.00;99.90;;;;;;5026038;28;20056;-67
2022/05/29 05:11:23;;;;;;;7.30;3.15;;;10.10;99.90;;;;;;5026754;28;20466;-67
2022/05/29 05:13:50;;;;;;;6.00;3.10;;;10.10;99.90;;;;;;5024838;28;20500;-68
2022/05/29 05:16:16;;;;;;;6.18;3.33;;;10.10;99.90;;;;;;5029747;28;20069;-68
2022/05/29 05:18:41;;;;;;;5.70;3.10;;;10.00;99.90;;;;;;5027196;28;20378;-67
2022/05/29 05:21:08;;;;;;;4.88;3.10;;;10.10;99.90;;;;;;5027271;28;20060;-67
2022/05/29 05:23:34;;;;;;;7.65;3.38;;;10.20;99.90;;;;;;5027517;28;20454;-67
2022/05/29 05:26:00;;;;;;;5.85;2.80;;;10.20;99.90;;;;;;5044229;28;20034;-67
2022/05/29 05:28:26;;;;;;;7.35;3.30;;;10.30;99.90;;;;;;5028923;28;20033;-67
2022/05/29 05:30:52;;;;;;;6.28;2.88;;;10.30;99.90;;;;;;5027812;28;20045;-65
2022/05/29 05:33:18;;;;;;;5.82;2.90;;;10.30;99.90;;;;;;5010510;28;20029;-67
2022/05/29 05:35:43;;;;;;;8.52;3.72;;;10.40;99.90;;;;;;5029676;28;20025;-67
2022/05/29 05:38:09;;;;;;;8.30;4.18;;;10.60;99.90;;;;;;5034187;28;20040;-67
2022/05/29 05:40:35;;;;;;;6.95;3.78;;;10.70;99.90;;;;;;5034062;28;20065;-69
2022/05/29 05:43:01;;;;;;;8.30;3.78;;;10.60;99.90;;;;;;5035518;28;20029;-66
2022/05/29 05:45:26;;;;;;;8.75;3.67;;;10.70;99.90;;;;;;5033176;28;20034;-67
2022/05/29 05:47:52;;;;;;;7.38;3.53;;;10.60;99.90;;;;;;5031399;28;20132;-66
2022/05/29 05:50:18;;;;;;;7.68;3.70;;;10.80;99.90;;;;;;5034981;28;20116;-68
2022/05/29 05:52:43;;;;;;;7.05;3.33;;;10.80;99.90;;;;;;5035030;28;20030;-68
2022/05/29 05:55:11;;;;;;;5.50;2.80;;;10.90;99.90;;;;;;5034985;28;20125;-68
2022/05/29 05:57:38;;;;;;;4.22;2.50;;;11.00;99.90;;;;;;5033827;28;20026;-68
2022/05/29 06:00:08;;;;;;;5.28;2.80;;;11.20;99.90;;;;;;5033269;28;20037;-68
2022/05/29 06:02:34;;;;;;;7.25;2.10;;;11.20;99.90;;;;;;5034342;28;20029;-63
2022/05/29 06:04:59;;;;;;;6.75;2.90;;;11.20;99.90;;;;;;5029093;28;20022;-66
2022/05/29 06:07:25;;;;;;;6.65;2.50;;;11.30;99.90;;;;;;5030868;28;20576;-66
2022/05/29 06:09:51;;;;;;;5.40;2.50;;;11.50;99.90;;;;;;5029811;28;20025;-66
2022/05/29 06:12:19;;;;;;;5.80;2.60;;;11.70;99.90;;;;;;5035520;28;20382;-68
2022/05/29 06:14:45;;;;;;;8.23;2.70;;;11.90;99.90;;;;;;5031604;28;20481;-69
2022/05/29 06:17:11;;;;;;;5.50;2.45;;;11.80;99.90;;;;;;5033990;28;20033;-68
2022/05/29 06:19:37;;;;;;;6.97;2.45;;;11.90;99.90;;;;;;5032038;28;20048;-68
2022/05/29 06:22:03;;;;;;;6.88;2.47;;;11.80;99.90;;;;;;5034819;28;20358;-68
2022/05/29 06:24:29;;;;;;;5.72;2.20;;;11.80;99.90;;;;;;5035285;28;20025;-68
2022/05/29 06:26:58;;;;;;;6.32;2.40;;;11.70;99.90;;;;;;5034091;28;20036;-68
2022/05/29 06:29:24;;;;;;;5.22;2.60;;;11.70;99.90;;;;;;5032327;28;20037;-68
2022/05/29 06:31:50;;;;;;;5.28;2.30;;;11.70;99.90;;;;;;5030975;28;20029;-69
2022/05/29 06:34:16;;;;;;;6.72;2.42;;;11.70;99.90;;;;;;5032225;28;20033;-68
2022/05/29 06:36:41;;;;;;;5.80;2.00;;;11.70;99.90;;;;;;5028374;28;20104;-67
2022/05/29 06:39:07;;;;;;;9.32;2.45;;;11.70;99.90;;;;;;5030193;28;20398;-68
2022/05/29 06:41:34;;;;;;;3.00;1.75;;;11.80;99.90;;;;;;5031688;28;20478;-65
2022/05/29 06:44:00;;;;;;;4.68;2.22;;;11.80;99.90;;;;;;5034275;28;20032;-68
2022/05/29 06:46:26;;;;;;;11.77;2.47;;;11.70;99.90;;;;;;5030667;28;20041;-68
2022/05/29 06:48:51;;;;;;;4.28;2.33;;;11.50;99.90;;;;;;5032270;28;20116;-66
2022/05/29 06:51:22;;;;;;;4.63;2.17;;;11.50;99.90;;;;;;5029012;28;20052;-68
2022/05/29 06:53:53;;;;;;;5.55;2.35;;;11.50;99.90;;;;;;5031134;28;20026;-67
2022/05/29 06:56:19;;;;;;;5.13;2.38;;;11.40;99.90;;;;;;5030281;28;20482;-67
2022/05/29 06:58:46;;;;;;;3.90;2.40;;;11.40;99.90;;;;;;5030308;28;20394;-68
2022/05/29 07:07:01;;;;;;;6.47;2.75;;;11.40;99.90;;;;;;5024019;28;20167;-67
2022/05/29 07:09:28;;;;;;;5.30;2.30;;;11.30;99.90;;;;;;5023118;28;20045;-67
2022/05/29 07:12:21;;;;;;;3.88;2.30;;;11.20;99.90;;;;;;5010941;28;20709;-68
2022/05/29 07:14:50;;;;;;;5.68;2.42;;;11.00;99.90;;;;;;5012763;28;20045;-66
2022/05/29 07:17:18;;;;;;;5.30;2.50;;;10.80;99.90;;;;;;5026347;28;20041;-67
2022/05/29 07:19:44;;;;;;;3.65;2.10;;;10.60;99.90;;;;;;5029612;28;20034;-66
2022/05/29 07:22:11;;;;;;;4.60;2.38;;;10.50;99.90;;;;;;5030768;28;20034;-66
2022/05/29 07:24:38;;;;;;;12.38;2.60;;;10.40;99.90;;;;;;5028098;28;20026;-64
2022/05/29 07:27:05;;;;;;;9.65;2.75;;;10.30;99.90;;;;;;5029082;28;20040;-67
2022/05/29 07:29:31;;;;;;;9.95;2.63;;;10.30;99.90;;;;;;5027146;28;20052;-66
2022/05/29 07:31:56;;;;;;;8.68;2.55;;;10.30;99.90;;;;;;5029618;28;20113;-65
2022/05/29 07:34:24;;;;;;;7.80;2.85;;;10.20;99.90;;;;;;5028044;28;20033;-68
2022/05/29 07:36:51;;;;;;;6.07;2.58;;;10.30;99.90;;;;;;5027876;28;20029;-68
2022/05/29 07:39:18;;;;;;;4.10;2.63;;;10.40;99.90;;;;;;5031140;28;20112;-68
2022/05/29 07:44:29;;;;;;;6.43;2.75;;;10.40;99.90;;;;;;5024624;28;20056;-70
2022/05/29 07:46:55;;;;;;;8.38;3.00;;;10.40;99.90;;;;;;5027095;28;20459;-70
2022/05/29 07:49:21;;;;;;;5.55;2.85;;;10.40;99.90;;;;;;5027835;28;20528;-69
2022/05/29 07:51:47;;;;;;;10.27;3.13;;;10.40;99.90;;;;;;5025293;28;20025;-70
2022/05/29 07:54:13;;;;;;;11.38;3.33;;;10.20;99.90;;;;;;5023919;28;20034;-70
2022/05/29 07:56:39;;;;;;;7.53;3.25;;;9.90;99.90;;;;;;5027121;28;20124;-65
2022/05/29 07:59:05;;;;;;;8.50;3.28;;;10.00;99.90;;;;;;5030624;28;20037;-68
2022/05/29 08:01:31;;;;;;;10.45;3.97;;;10.10;99.90;;;;;;5027309;28;20029;-69
2022/05/29 08:03:57;;;;;;;6.32;3.65;;;10.20;99.90;;;;;;5027953;28;20057;-68
2022/05/29 08:06:24;;;;;;;9.15;3.78;;;10.40;99.90;;;;;;5027812;28;20053;-70
2022/05/29 08:08:49;;;;;;;7.10;3.00;;;10.40;99.90;;;;;;5025188;28;20040;-69
2022/05/29 08:11:17;;;;;;;7.88;3.20;;;10.40;99.90;;;;;;5025145;28;20029;-69
2022/05/29 08:13:44;;;;;;;8.00;3.40;;;10.40;99.90;;;;;;5025758;28;20105;-70
2022/05/29 08:16:10;;;;;;;6.25;3.13;;;10.30;99.90;;;;;;5029501;28;20025;-70
2022/05/29 08:18:36;;;;;;;11.30;3.58;;;10.30;99.90;;;;;;5026717;28;20037;-70
2022/05/29 08:21:03;;;;;;;10.43;3.72;;;10.40;99.90;;;;;;5025312;28;21091;-68
2022/05/29 08:23:28;;;;;;;7.25;3.45;;;10.40;99.90;;;;;;5026266;28;20030;-70
2022/05/29 08:31:24;;;;;;;6.30;2.30;;;10.70;99.90;;;;;;5026112;28;20083;-71
2022/05/29 08:33:49;;;;;;;10.73;2.60;;;10.90;99.90;;;;;;5023963;28;20040;-70
2022/05/29 08:36:21;;;;;;;5.63;2.67;;;10.90;99.90;;;;;;5028217;28;20433;-70
2022/05/29 08:38:48;;;;;;;8.45;2.45;;;11.10;99.90;;;;;;5027778;28;20060;-69
2022/05/29 08:41:26;;;;;;;5.93;2.60;;;11.40;99.90;;;;;;5027845;28;20046;-70
2022/05/29 08:44:12;;;;;;;6.43;2.40;;;11.60;99.90;;;;;;5021178;28;20432;-69
2022/05/29 08:46:42;;;;;;;4.00;2.58;;;11.80;99.90;;;;;;5016356;28;20106;-71
2022/05/29 08:49:11;;;;;;;5.28;2.45;;;11.90;99.90;;;;;;5026821;28;20033;-70
2022/05/29 08:52:04;;;;;;;5.40;2.58;;;12.10;99.90;;;;;;5027605;28;20033;-71
2022/05/29 08:54:50;;;;;;;5.22;2.67;;;12.30;99.90;;;;;;5010476;28;20034;-71
2022/05/29 08:57:18;;;;;;;7.50;2.50;;;12.60;99.90;;;;;;5012008;28;20120;-71
2022/05/29 08:59:59;;;;;;;6.93;2.17;;;13.00;99.90;;;;;;5028748;28;20091;-65
2022/05/29 09:02:39;;;;;;;;;;;13.00;99.90;;;;;;5025752;28;20041;-70
2022/05/29 09:05:11;;;;;;;5.05;2.20;;;13.20;99.90;;;;;;5022283;28;19952;-72
2022/05/29 09:07:40;;;;;;;4.43;2.30;;;13.20;99.90;;;;;;5026864;28;20608;-71
2022/05/29 09:10:33;;;;;;;5.50;2.70;;;13.30;99.90;;;;;;5024714;28;20540;-72
2022/05/29 09:13:01;;;;;;;4.53;1.95;;;13.30;99.90;;;;;;5023774;28;20124;-70
2022/05/29 09:15:41;;;;;;;7.28;2.10;;;13.40;99.90;;;;;;5025588;28;20026;-70
2022/05/29 09:18:15;;;;;;;7.22;1.70;;;13.60;99.90;;;;;;5024888;28;20018;-71
2022/05/29 09:20:43;;;;;;;7.35;2.20;;;13.70;99.90;;;;;;5025086;28;20034;-68
2022/05/29 09:23:17;;;;;;;5.25;2.13;;;13.40;99.90;;;;;;5029220;28;20025;-72
2022/05/29 09:25:43;;;;;;;6.57;2.75;;;13.40;99.90;;;;;;5029473;28;20040;-66
2022/05/29 09:28:14;;;;;;;6.65;2.95;;;13.40;99.90;;;;;;5029155;28;20018;-71
2022/05/29 09:30:40;;;;;;;10.57;3.45;;;13.70;99.90;;;;;;5011250;28;20052;-71
2022/05/29 09:33:15;;;;;;;7.32;2.45;;;13.60;99.90;;;;;;5028663;28;20022;-68
2022/05/29 09:36:19;;;;;;;11.70;3.75;;;13.40;99.90;;;;;;5028463;28;20565;-69
2022/05/29 09:39:08;;;;;;;9.50;3.40;;;13.20;99.90;;;;;;5028889;28;20040;-67
2022/05/29 09:41:47;;;;;;;14.48;4.47;;;13.20;99.90;;;;;;5029468;28;20162;-72
2022/05/29 09:44:16;;;;;;;10.25;3.15;;;12.90;99.90;;;;;;5029455;28;20025;-72
2022/05/29 09:46:47;;;;;;;9.52;2.58;;;13.00;99.90;;;;;;5029536;28;20025;-70
2022/05/29 09:49:41;;;;;;;8.40;2.70;;;13.10;99.90;;;;;;5029346;28;20442;-69
2022/05/29 09:52:21;;;;;;;12.40;6.78;;;13.10;99.90;;;;;;5027562;28;20933;-70
2022/05/29 09:54:53;;;;;;;12.18;5.30;;;13.10;99.90;;;;;;5028757;28;20022;-68
2022/05/29 09:57:26;;;;;;;6.22;2.70;;;13.10;99.90;;;;;;5029288;28;20030;-71
2022/05/29 10:00:08;;;;;;;6.00;2.40;;;13.00;99.90;;;;;;5028294;28;20416;-72
2022/05/29 10:02:39;;;;;;;4.57;1.92;;;13.20;99.90;;;;;;5029412;28;20109;-72
2022/05/29 10:05:19;;;;;;;3.00;1.60;;;13.50;99.90;;;;;;5027480;28;20215;-73
2022/05/29 10:07:47;;;;;;;5.70;1.80;;;13.60;99.90;;;;;;5029123;28;20113;-68
2022/05/29 10:10:24;;;;;;;4.95;1.65;;;13.50;99.90;;;;;;5029040;28;20042;-72
2022/05/29 10:12:51;;;;;;;2.90;1.40;;;13.20;99.90;;;;;;5013116;28;20497;-69
2022/05/29 10:15:26;;;;;;;3.47;1.35;;;13.10;99.90;;;;;;5028886;28;20013;-72
2022/05/29 10:18:05;;;;;;;2.58;1.25;;;13.00;99.90;;;;;;5027718;28;20064;-73
2022/05/29 10:20:33;;;;;;;3.55;1.33;;;12.80;99.90;;;;;;5028110;28;20103;-72
2022/05/29 10:23:32;;;;;;;3.17;1.23;;;12.70;99.90;;;;;;5029636;28;20466;-71
2022/05/29 10:26:01;;;;;;;5.90;1.60;;;12.80;99.90;;;;;;5018040;28;20067;-69
2022/05/29 10:28:34;;;;;;;4.10;1.42;;;12.90;99.90;;;;;;5027552;28;20025;-70
2022/05/29 10:31:05;;;;;;;2.40;1.30;;;12.90;99.90;;;;;;5022377;28;20474;-71
2022/05/29 10:33:33;;;;;;;2.53;1.35;;;13.10;99.90;;;;;;5024229;28;20044;-70
2022/05/29 10:36:22;;;;;;;2.85;1.50;;;13.10;99.90;;;;;;5025281;28;20040;-72
2022/05/29 10:39:12;;;;;;;4.28;1.35;;;13.00;99.90;;;;;;5023252;28;20079;-66
2022/05/29 10:41:42;;;;;;;5.13;1.92;;;12.80;99.90;;;;;;5029974;28;20045;-73
2022/05/29 10:44:32;;;;;;;3.15;1.40;;;12.70;99.90;;;;;;5029872;28;20110;-71
2022/05/29 10:47:04;;;;;;;5.10;1.40;;;12.70;99.90;;;;;;5024484;28;20040;-71
2022/05/29 10:49:37;;;;;;;3.47;1.60;;;12.60;99.90;;;;;;5028998;28;20109;-72
2022/05/29 10:52:47;;;;;;;4.85;1.67;;;12.50;99.90;;;;;;5028389;28;20113;-73
2022/05/29 10:55:25;;;;;;;8.68;1.58;;;12.50;99.90;;;;;;4943288;29;20136;-71
2022/05/29 10:57:57;;;;;;;7.30;1.90;;;12.40;99.90;;;;;;4944357;29;20043;-67
2022/05/29 11:00:37;;;;;;;5.68;1.70;;;12.40;99.90;;;;;;4996686;28;20037;-72
2022/05/29 11:03:17;;;;;;;7.55;1.90;;;12.30;99.90;;;;;;5028878;28;20115;-71
2022/05/29 11:06:20;;;;;;;5.95;2.20;;;12.20;99.90;;;;;;5029309;28;20029;-71
2022/05/29 11:08:57;;;;;;;6.35;2.28;;;12.30;99.90;;;;;;5029993;28;20083;-70
2022/05/29 11:12:05;;;;;;;23.90;10.07;;;12.30;99.90;;;;;;5030362;28;20037;-70
2022/05/29 11:14:49;;;;;;;8.02;3.67;;;12.20;99.90;;;;;;5027711;28;20034;-70
2022/05/29 11:17:22;;;;;;;4.28;2.00;;;12.10;99.90;;;;;;5005361;28;20033;-70
2022/05/29 11:20:09;;;;;;;2.58;1.60;;;11.90;99.90;;;;;;5028476;28;20044;-69
2022/05/29 11:23:16;;;;;;;3.17;1.60;;;11.80;99.90;;;;;;5026972;28;20310;-73
2022/05/29 11:25:45;;;;;;;11.73;7.00;;;11.80;99.90;;;;;;5028247;28;20423;-71
2022/05/29 11:28:25;;;;;;;3.38;1.80;;;11.70;99.90;;;;;;5030669;28;20644;-70
2022/05/29 11:31:05;;;;;;;3.30;1.90;;;11.80;99.90;;;;;;5028322;28;20761;-67
2022/05/29 11:34:05;;;;;;;11.82;5.55;;;12.00;99.90;;;;;;5029244;28;20036;-70
2022/05/29 11:37:04;;;;;;;7.40;3.20;;;12.00;99.90;;;;;;5031457;28;20038;-71
2022/05/29 11:39:59;;;;;;;3.55;1.67;;;12.10;99.90;;;;;;5017474;28;20398;-70
2022/05/29 11:42:43;;;;;;;4.25;2.08;;;12.10;99.90;;;;;;5029213;28;20049;-73
2022/05/29 11:45:24;;;;;;;5.88;2.30;;;11.90;99.90;;;;;;5027632;28;20029;-71
2022/05/29 11:51:08;;;;;;;5.75;1.60;;;11.70;99.90;;;;;;5026102;28;20525;-69
2022/05/29 11:54:05;;;;;;;3.72;1.70;;;11.70;99.90;;;;;;5029419;28;20112;-71
2022/05/29 11:56:52;;;;;;;4.28;1.60;;;11.70;99.90;;;;;;5028126;28;20032;-70
2022/05/29 11:59:32;;;;;;;5.57;1.55;;;11.60;99.90;;;;;;5010991;28;20030;-71
2022/05/29 12:02:13;;;;;;;8.43;1.85;;;11.70;99.90;;;;;;5022707;28;20029;-70
2022/05/29 12:04:48;;;;;;;8.40;2.13;;;11.50;99.90;;;;;;5020984;28;20451;-67
2022/05/29 12:07:38;;;;;;;3.78;1.90;;;11.20;99.90;;;;;;5027266;28;20056;-71
2022/05/29 12:10:11;;;;;;;4.20;1.80;;;10.90;99.90;;;;;;5027712;28;20044;-71
2022/05/29 12:12:42;;;;;;;4.45;2.08;;;10.80;99.90;;;;;;5029512;28;20037;-69
2022/05/29 12:15:14;;;;;;;5.95;2.05;;;10.80;99.90;;;;;;5026587;28;20033;-69
2022/05/29 12:17:52;;;;;;;4.97;1.90;;;10.70;99.90;;;;;;5027809;28;20124;-70
2022/05/29 12:20:37;;;;;;;11.15;2.35;;;10.70;99.90;;;;;;5028747;28;20501;-69
2022/05/29 12:23:09;;;;;;;6.55;2.10;;;10.70;99.90;;;;;;5024842;28;20108;-71
2022/05/29 12:25:47;;;;;;;5.50;2.65;;;10.70;99.90;;;;;;5026737;28;20044;-74
2022/05/29 12:28:29;;;;;;;9.70;2.50;;;10.80;99.90;;;;;;5027673;28;20037;-74
2022/05/29 12:30:56;;;;;;;7.38;2.78;;;10.80;99.90;;;;;;5029021;28;20061;-67
2022/05/29 12:33:25;;;;;;;7.65;2.90;;;10.60;99.90;;;;;;5027651;28;20032;-73
2022/05/29 12:36:10;;;;;;;7.40;3.00;;;10.40;99.90;;;;;;5027386;28;20091;-73
2022/05/29 12:38:47;;;;;;;6.28;3.08;;;10.30;99.90;;;;;;5026521;28;20042;-73
2022/05/29 12:41:22;;;;;;;7.25;2.65;;;10.20;99.90;;;;;;5023445;28;20056;-73
2022/05/29 12:44:09;;;;;;;8.82;2.65;;;10.00;99.90;;;;;;5026827;28;20061;-75
2022/05/29 12:47:09;;;;;;;5.78;2.60;;;9.90;99.90;;;;;;5026827;28;20116;-75
2022/05/29 12:50:10;;;;;;;6.50;2.70;;;10.00;99.90;;;;;;5012324;28;20041;-76
2022/05/29 12:52:45;;;;;;;7.10;2.78;;;10.00;99.90;;;;;;4928132;29;20060;-77
2022/05/29 12:55:24;;;;;;;6.18;2.90;;;10.00;99.90;;;;;;5012127;28;20042;-77
2022/05/29 12:57:59;;;;;;;4.78;2.83;;;10.00;99.90;;;;;;5027315;28;20460;-76
2022/05/29 13:00:54;;;;;;;6.28;3.22;;;10.10;99.90;;;;;;5026066;28;20029;-78
2022/05/29 13:03:31;;;;;;;5.30;2.60;;;10.30;99.90;;;;;;5007550;28;20120;-78
2022/05/29 13:06:18;;;;;;;3.78;2.30;;;10.30;99.90;;;;;;5029284;28;20032;-70
2022/05/29 13:08:52;;;;;;;6.45;2.40;;;10.20;99.90;;;;;;5027029;28;20025;-77
2022/05/29 13:11:23;;;;;;;6.85;2.60;;;10.30;99.90;;;;;;5026279;28;20034;-78
2022/05/29 13:13:55;;;;;;;4.97;2.03;;;10.30;99.90;;;;;;5026946;28;20036;-76
2022/05/29 13:16:43;;;;;;;4.25;2.38;;;10.40;99.90;;;;;;5026580;28;20064;-77
2022/05/29 13:19:17;;;;;;;3.10;1.60;;;10.60;99.90;;;;;;5027114;28;20018;-79
2022/05/29 13:22:02;;;;;;;3.20;1.73;;;10.70;99.90;;;;;;5026717;28;20037;-78
2022/05/29 13:24:35;;;;;;;2.95;1.73;;;10.70;99.90;;;;;;5028316;28;20029;-74
2022/05/29 13:27:09;;;;;;;3.63;1.70;;;10.80;99.90;;;;;;5026540;28;20029;-75
2022/05/29 13:29:38;;;;;;;3.45;1.60;;;11.00;99.90;;;;;;5025890;28;20398;-76
2022/05/29 13:32:13;;;;;;;1.98;1.50;;;11.30;99.90;;;;;;5028430;28;20044;-76
2022/05/29 13:34:39;;;;;;;4.82;1.30;;;11.60;99.90;;;;;;5027558;28;20030;-77
2022/05/29 13:37:28;;;;;;;3.67;1.50;;;11.80;99.90;;;;;;5025384;28;20029;-75
2022/05/29 13:40:06;;;;;;;4.20;1.35;;;11.80;99.90;;;;;;5024634;28;20057;-70
2022/05/29 13:42:36;;;;;;;4.30;1.52;;;12.10;99.90;;;;;;5026909;28;20088;-74